Herzlich willkommen!

Am freundlichen Bodensee-Flugplatz zwischen Schwarzwald, Rhein und Alpen.

Aktuelles

21.07.2023
Abflugrichtung
Flying over the airfield is only intended during approaches.
Due to the risk of collision is it not permitted during departures.

Das Überfliegen des Platzes ist nur bei Anflügen vorgesehen. 
Wegen Kollisionsgefahr ist es nicht gestattet bei Abflügen.

Live am Platz

Zeiten genähert. Alle Angaben unverbindlich und ohne Gewähr.

Die Bilder unserer Webcams werden alle 5 Minuten aktualisiert.

Beginn bürgerliche Dämmerung, Sonnenaufgang:

05:48 UTC / 06:48 Lokal
06:17 UTC / 07:17 Lokal

Sonnenuntergang, Ende bürgerliche Dämmerung:

16:56 UTC / 17:56 Lokal
17:25 UTC / 18:25 Lokal

METAR (21.02.2024 16:50 UTC):

EDNY 211650Z 21002KT CAVOK 08/02 Q1017
VFR

TAF (21.02.2024 11:00 UTC):

TAF EDNY 211100Z 2112/2212 23005KT 9999 OVC060

Für den Verkehrslandeplatz Konstanz werden keine offiziellen Wetterinformationen ausgegeben. Daher werden zur Orientierung Daten des nahegelegenen Flughafens Friedrichshafen dargestellt.

Das Landeentgelt kann bei uns mit aerops bezahlt werden. Die App für's Handy ist kostenfrei erhältlich.